createdAt,value
2019-03-16T00:00:17.437Z,966.75
2019-03-16T00:01:17.432Z,966.74
2019-03-16T00:02:17.414Z,966.74
2019-03-16T00:03:17.428Z,966.86
2019-03-16T00:04:17.407Z,966.79
2019-03-16T00:05:17.390Z,966.81
2019-03-16T00:06:17.398Z,966.90
2019-03-16T00:07:17.360Z,966.87
2019-03-16T00:08:17.350Z,966.81
2019-03-16T00:09:17.350Z,966.92
2019-03-16T00:10:17.329Z,966.83
2019-03-16T00:11:17.323Z,966.76
2019-03-16T00:12:17.306Z,966.96
2019-03-16T00:13:17.299Z,966.75
2019-03-16T00:14:17.298Z,966.92
2019-03-16T00:15:17.274Z,966.95
2019-03-16T00:16:17.265Z,966.90
2019-03-16T00:17:23.191Z,966.91
2019-03-16T00:18:18.242Z,966.96
2019-03-16T00:19:17.240Z,966.84
2019-03-16T00:20:17.356Z,966.84
2019-03-16T00:21:17.219Z,966.77
2019-03-16T00:22:17.194Z,966.85
2019-03-16T00:23:17.182Z,966.80
2019-03-16T00:24:17.207Z,966.72
2019-03-16T00:25:17.163Z,966.76
2019-03-16T00:26:17.150Z,966.79
2019-03-16T00:27:17.148Z,966.86
2019-03-16T00:28:17.126Z,966.89
2019-03-16T00:29:17.135Z,966.83
2019-03-16T00:30:17.105Z,966.83
2019-03-16T00:31:17.095Z,966.80
2019-03-16T00:32:17.082Z,966.80
2019-03-16T00:33:17.074Z,966.76
2019-03-16T00:34:17.069Z,966.87
2019-03-16T00:35:17.062Z,966.87
2019-03-16T00:36:17.039Z,966.82
2019-03-16T00:37:17.032Z,966.88
2019-03-16T00:38:17.016Z,966.81
2019-03-16T00:39:17.022Z,966.80
2019-03-16T00:40:16.991Z,966.76
2019-03-16T00:41:16.983Z,966.86
2019-03-16T00:42:16.984Z,966.89
2019-03-16T00:43:16.958Z,966.88
2019-03-16T00:44:16.967Z,966.82
2019-03-16T00:45:16.939Z,966.77
2019-03-16T00:46:16.924Z,966.86
2019-03-16T00:47:16.915Z,966.79
2019-03-16T00:48:16.907Z,966.74
2019-03-16T00:49:16.903Z,966.71
2019-03-16T00:50:16.891Z,966.78
2019-03-16T00:51:16.877Z,966.72
2019-03-16T00:52:16.861Z,966.72
2019-03-16T00:53:16.848Z,966.84
2019-03-16T00:54:16.852Z,966.79
2019-03-16T00:55:16.827Z,966.83
2019-03-16T00:56:16.812Z,966.63
2019-03-16T00:57:16.852Z,966.75
2019-03-16T00:58:16.797Z,966.73
2019-03-16T00:59:16.811Z,966.75
2019-03-16T01:00:16.817Z,966.78
2019-03-16T01:01:16.761Z,966.72
2019-03-16T01:02:26.396Z,966.69
2019-03-16T01:03:17.735Z,966.81
2019-03-16T01:04:16.777Z,966.84
2019-03-16T01:05:16.718Z,966.79
2019-03-16T01:06:16.713Z,966.83
2019-03-16T01:07:16.693Z,966.90
2019-03-16T01:08:16.681Z,966.83
2019-03-16T01:09:16.672Z,966.83
2019-03-16T01:10:16.669Z,966.84
2019-03-16T01:11:16.651Z,966.83
2019-03-16T01:12:16.638Z,966.89
2019-03-16T01:13:16.626Z,966.89
2019-03-16T01:14:16.625Z,966.97
2019-03-16T01:15:16.627Z,966.84
2019-03-16T01:16:16.610Z,966.99
2019-03-16T01:17:16.580Z,966.92
2019-03-16T01:18:16.605Z,966.97
2019-03-16T01:19:16.718Z,966.84
2019-03-16T01:20:16.553Z,966.89
2019-03-16T01:21:16.550Z,966.98
2019-03-16T01:22:16.621Z,966.89
2019-03-16T01:23:17.774Z,967.00
2019-03-16T01:24:16.569Z,966.99
2019-03-16T01:25:16.493Z,966.94
2019-03-16T01:26:16.505Z,966.93
2019-03-16T01:27:16.472Z,966.97
2019-03-16T01:28:16.461Z,966.95
2019-03-16T01:29:16.451Z,967.00
2019-03-16T01:30:16.445Z,966.92
2019-03-16T01:31:16.429Z,966.94
2019-03-16T01:32:16.424Z,967.12
2019-03-16T01:33:16.402Z,967.00
2019-03-16T01:34:16.432Z,967.03
2019-03-16T01:35:16.387Z,967.06
2019-03-16T01:36:16.370Z,967.05
2019-03-16T01:37:16.358Z,967.01
2019-03-16T01:38:16.356Z,967.00
2019-03-16T01:39:16.335Z,967.07
2019-03-16T01:40:16.331Z,967.06
2019-03-16T01:41:16.352Z,966.99
2019-03-16T01:42:16.302Z,967.03
2019-03-16T01:43:16.297Z,967.05
2019-03-16T01:44:16.283Z,967.13
2019-03-16T01:45:16.272Z,967.03
2019-03-16T01:46:16.256Z,967.05
2019-03-16T01:47:16.251Z,967.12
2019-03-16T01:48:16.238Z,967.17
2019-03-16T01:49:16.239Z,967.02
2019-03-16T01:50:16.213Z,967.09
2019-03-16T01:51:16.203Z,966.98
2019-03-16T01:52:16.202Z,967.13
2019-03-16T01:53:16.181Z,967.07
2019-03-16T01:54:16.189Z,966.91
2019-03-16T01:55:16.165Z,966.92
2019-03-16T01:56:16.213Z,966.98
2019-03-16T01:57:16.143Z,967.01
2019-03-16T01:58:16.125Z,967.15
2019-03-16T01:59:16.120Z,967.06
2019-03-16T02:00:16.106Z,967.16
2019-03-16T02:01:16.095Z,967.18
2019-03-16T02:02:16.080Z,967.19
2019-03-16T02:03:16.066Z,967.18
2019-03-16T02:04:16.056Z,967.11
2019-03-16T02:05:16.056Z,967.19
2019-03-16T02:06:16.035Z,967.24
2019-03-16T02:07:16.022Z,967.19
2019-03-16T02:08:16.017Z,967.16
2019-03-16T02:09:16.015Z,967.04
2019-03-16T02:10:16.045Z,967.07
2019-03-16T02:11:15.984Z,967.14
2019-03-16T02:12:16.014Z,967.17
2019-03-16T02:13:15.958Z,967.26
2019-03-16T02:14:15.997Z,967.35
2019-03-16T02:15:15.980Z,967.24
2019-03-16T02:16:15.932Z,967.35
2019-03-16T02:17:15.916Z,967.22
2019-03-16T02:18:16.050Z,967.28
2019-03-16T02:19:15.894Z,967.27
2019-03-16T02:20:15.893Z,967.36
2019-03-16T02:21:15.870Z,967.28
2019-03-16T02:22:15.865Z,967.20
2019-03-16T02:23:15.850Z,967.27
2019-03-16T02:24:15.836Z,967.24
2019-03-16T02:25:15.830Z,967.35
2019-03-16T02:26:15.829Z,967.36
2019-03-16T02:27:15.805Z,967.26
2019-03-16T02:28:15.798Z,967.33
2019-03-16T02:29:15.787Z,967.28
2019-03-16T02:30:15.814Z,967.41
2019-03-16T02:31:15.761Z,967.37
2019-03-16T02:32:15.748Z,967.54
2019-03-16T02:33:15.743Z,967.41
2019-03-16T02:34:15.761Z,967.34
2019-03-16T02:35:15.731Z,967.38
2019-03-16T02:36:15.710Z,967.29
2019-03-16T02:37:15.730Z,967.34
2019-03-16T02:38:15.685Z,967.46
2019-03-16T02:39:15.675Z,967.39
2019-03-16T02:40:15.745Z,967.53
2019-03-16T02:41:15.652Z,967.50
2019-03-16T02:42:15.653Z,967.38
2019-03-16T02:43:15.631Z,967.52
2019-03-16T02:44:15.627Z,967.53
2019-03-16T02:45:15.613Z,967.40
2019-03-16T02:46:15.628Z,967.44
2019-03-16T02:47:15.704Z,967.51
2019-03-16T02:48:15.581Z,967.50
2019-03-16T02:49:15.567Z,967.52
2019-03-16T02:50:15.561Z,967.59
2019-03-16T02:51:15.579Z,967.45
2019-03-16T02:52:15.540Z,967.49
2019-03-16T02:53:15.518Z,967.57
2019-03-16T02:54:15.509Z,967.51
2019-03-16T02:55:15.710Z,967.54
2019-03-16T02:56:15.487Z,967.58
2019-03-16T02:57:15.623Z,967.47
2019-03-16T02:58:15.469Z,967.51
2019-03-16T02:59:15.454Z,967.53
2019-03-16T03:00:15.450Z,967.54
2019-03-16T03:01:15.451Z,967.55
2019-03-16T03:02:15.447Z,967.40
2019-03-16T03:03:28.695Z,967.62
2019-03-16T03:04:16.398Z,967.64
2019-03-16T03:05:15.390Z,967.57
2019-03-16T03:06:15.396Z,967.57
2019-03-16T03:07:15.368Z,967.51
2019-03-16T03:08:15.380Z,967.64
2019-03-16T03:09:15.360Z,967.69
2019-03-16T03:10:15.346Z,967.67
2019-03-16T03:11:15.343Z,967.66
2019-03-16T03:12:15.314Z,967.67
2019-03-16T03:13:15.303Z,967.67
2019-03-16T03:14:15.294Z,967.76
2019-03-16T03:15:15.428Z,967.66
2019-03-16T03:16:15.283Z,967.71
2019-03-16T03:17:15.278Z,967.68
2019-03-16T03:18:15.259Z,967.60
2019-03-16T03:19:15.236Z,967.55
2019-03-16T03:20:15.233Z,967.71
2019-03-16T03:21:15.225Z,967.67
2019-03-16T03:22:15.209Z,967.68
2019-03-16T03:23:15.193Z,967.65
2019-03-16T03:24:15.183Z,967.83
2019-03-16T03:25:15.179Z,967.66
2019-03-16T03:26:15.179Z,967.81
2019-03-16T03:27:15.149Z,967.75
2019-03-16T03:28:15.144Z,967.81
2019-03-16T03:29:15.134Z,967.79
2019-03-16T03:30:15.221Z,967.81
2019-03-16T03:31:15.194Z,967.90
2019-03-16T03:32:15.100Z,967.97
2019-03-16T03:33:15.084Z,967.83
2019-03-16T03:34:15.077Z,967.92
2019-03-16T03:35:15.075Z,967.86
2019-03-16T03:36:15.059Z,967.98
2019-03-16T03:37:15.075Z,967.95
2019-03-16T03:38:15.134Z,967.94
2019-03-16T03:39:15.025Z,968.01
2019-03-16T03:40:15.052Z,968.01
2019-03-16T03:41:15.011Z,968.02
2019-03-16T03:42:15.107Z,968.03
2019-03-16T03:43:14.982Z,968.02
2019-03-16T03:44:15.094Z,968.03
2019-03-16T03:45:14.954Z,968.05
2019-03-16T03:46:14.945Z,968.06
2019-03-16T03:47:14.936Z,968.03
2019-03-16T03:48:14.929Z,967.99
2019-03-16T03:49:14.912Z,968.19
2019-03-16T03:50:15.031Z,968.01
2019-03-16T03:51:14.916Z,968.07
2019-03-16T03:52:14.885Z,968.01
2019-03-16T03:53:14.969Z,967.99
2019-03-16T03:54:14.856Z,968.03
2019-03-16T03:55:14.843Z,968.06
2019-03-16T03:56:14.850Z,968.04
2019-03-16T03:57:14.820Z,968.12
2019-03-16T03:58:14.819Z,968.09
2019-03-16T03:59:14.841Z,968.19
2019-03-16T04:00:14.789Z,968.09
2019-03-16T04:01:14.804Z,968.17
2019-03-16T04:02:14.774Z,968.18
2019-03-16T04:03:14.756Z,968.19
2019-03-16T04:04:16.107Z,968.14
2019-03-16T04:05:14.831Z,968.17
2019-03-16T04:06:14.732Z,968.29
2019-03-16T04:07:14.727Z,968.24
2019-03-16T04:08:14.703Z,968.34
2019-03-16T04:09:14.714Z,968.23
2019-03-16T04:10:14.691Z,968.28
2019-03-16T04:11:14.667Z,968.34
2019-03-16T04:12:14.656Z,968.25
2019-03-16T04:13:14.653Z,968.34
2019-03-16T04:14:14.652Z,968.29
2019-03-16T04:15:14.688Z,968.28
2019-03-16T04:16:14.632Z,968.34
2019-03-16T04:17:14.611Z,968.42
2019-03-16T04:18:14.596Z,968.43
2019-03-16T04:19:14.584Z,968.42
2019-03-16T04:20:14.593Z,968.37
2019-03-16T04:21:14.584Z,968.41
2019-03-16T04:22:14.561Z,968.42
2019-03-16T04:23:14.563Z,968.47
2019-03-16T04:24:14.528Z,968.52
2019-03-16T04:25:14.551Z,968.59
2019-03-16T04:26:14.506Z,968.50
2019-03-16T04:27:16.382Z,968.55
2019-03-16T04:28:14.485Z,968.57
2019-03-16T04:29:14.473Z,968.51
2019-03-16T04:30:14.567Z,968.58
2019-03-16T04:31:14.463Z,968.62
2019-03-16T04:32:14.442Z,968.60
2019-03-16T04:33:14.445Z,968.60
2019-03-16T04:34:28.012Z,968.55
2019-03-16T04:35:15.424Z,968.54
2019-03-16T04:36:14.396Z,968.58
2019-03-16T04:37:14.439Z,968.60
2019-03-16T04:38:14.375Z,968.61
2019-03-16T04:39:14.383Z,968.63
2019-03-16T04:40:14.542Z,968.62
2019-03-16T04:41:14.340Z,968.66
2019-03-16T04:42:14.340Z,968.66
2019-03-16T04:43:14.346Z,968.68
2019-03-16T04:44:14.314Z,968.77
2019-03-16T04:45:14.327Z,968.79
2019-03-16T04:46:14.331Z,968.73
2019-03-16T04:47:14.296Z,968.79
2019-03-16T04:48:14.379Z,968.74
2019-03-16T04:49:14.254Z,968.77
2019-03-16T04:50:14.238Z,968.73
2019-03-16T04:51:14.229Z,968.74
2019-03-16T04:52:14.342Z,968.72
2019-03-16T04:53:14.208Z,968.77
2019-03-16T04:54:14.237Z,968.71
2019-03-16T04:55:14.201Z,968.77
2019-03-16T04:56:14.176Z,968.73
2019-03-16T04:57:14.188Z,968.64
2019-03-16T04:58:14.159Z,968.72
2019-03-16T04:59:14.140Z,968.73
2019-03-16T05:00:14.162Z,968.71
2019-03-16T05:01:14.135Z,968.86
2019-03-16T05:02:14.109Z,968.81
2019-03-16T05:03:14.113Z,968.65
2019-03-16T05:04:14.083Z,968.74
2019-03-16T05:05:14.081Z,968.82
2019-03-16T05:06:14.079Z,968.83
2019-03-16T05:07:14.054Z,968.71
2019-03-16T05:08:14.039Z,968.83
2019-03-16T05:09:14.029Z,968.88
2019-03-16T05:10:14.026Z,968.80
2019-03-16T05:11:14.017Z,968.83
2019-03-16T05:12:13.996Z,968.83
2019-03-16T05:13:13.985Z,968.85
2019-03-16T05:14:14.021Z,968.81
2019-03-16T05:15:13.971Z,968.80
2019-03-16T05:16:13.962Z,968.83
2019-03-16T05:17:13.940Z,968.88
2019-03-16T05:18:13.934Z,968.94
2019-03-16T05:19:13.932Z,968.89
2019-03-16T05:20:13.926Z,968.94
2019-03-16T05:21:13.911Z,968.91
2019-03-16T05:22:13.882Z,968.92
2019-03-16T05:23:13.872Z,968.91
2019-03-16T05:24:13.883Z,969.01
2019-03-16T05:25:13.875Z,969.00
2019-03-16T05:26:13.845Z,969.06
2019-03-16T05:27:13.843Z,969.00
2019-03-16T05:28:13.844Z,969.05
2019-03-16T05:29:13.818Z,969.02
2019-03-16T05:30:13.834Z,969.06
2019-03-16T05:31:13.785Z,969.06
2019-03-16T05:32:13.776Z,969.14
2019-03-16T05:33:13.764Z,969.17
2019-03-16T05:34:13.769Z,969.11
2019-03-16T05:35:13.746Z,969.15
2019-03-16T05:36:13.891Z,969.14
2019-03-16T05:37:13.721Z,969.22
2019-03-16T05:38:13.713Z,969.24
2019-03-16T05:39:13.700Z,969.20
2019-03-16T05:40:13.686Z,969.18
2019-03-16T05:41:13.679Z,969.29
2019-03-16T05:42:13.673Z,969.27
2019-03-16T05:43:13.657Z,969.20
2019-03-16T05:44:13.654Z,969.25
2019-03-16T05:45:13.634Z,969.23
2019-03-16T05:46:13.672Z,969.18
2019-03-16T05:47:13.686Z,969.18
2019-03-16T05:48:14.300Z,969.23
2019-03-16T05:49:13.587Z,969.21
2019-03-16T05:50:13.600Z,969.17
2019-03-16T05:51:13.597Z,969.18
2019-03-16T05:52:13.556Z,969.19
2019-03-16T05:53:13.547Z,969.16
2019-03-16T05:54:13.562Z,969.17
2019-03-16T05:55:13.524Z,969.26
2019-03-16T05:56:13.524Z,969.21
2019-03-16T05:57:13.504Z,969.28
2019-03-16T05:58:13.535Z,969.21
2019-03-16T05:59:13.485Z,969.20
2019-03-16T06:00:13.521Z,969.20
2019-03-16T06:01:13.516Z,969.26
2019-03-16T06:02:13.449Z,969.25
2019-03-16T06:03:13.631Z,969.24
2019-03-16T06:04:13.454Z,969.33
2019-03-16T06:05:13.546Z,969.31
2019-03-16T06:06:13.414Z,969.36
2019-03-16T06:07:13.417Z,969.40
2019-03-16T06:08:13.400Z,969.35
2019-03-16T06:09:13.393Z,969.37
2019-03-16T06:10:13.413Z,969.46
2019-03-16T06:11:13.384Z,969.45
2019-03-16T06:12:13.365Z,969.41
2019-03-16T06:13:13.330Z,969.52
2019-03-16T06:14:13.320Z,969.60
2019-03-16T06:15:13.351Z,969.51
2019-03-16T06:16:13.405Z,969.54
2019-03-16T06:17:13.311Z,969.54
2019-03-16T06:18:13.398Z,969.59
2019-03-16T06:19:13.262Z,969.61
2019-03-16T06:20:13.279Z,969.64
2019-03-16T06:21:13.264Z,969.58
2019-03-16T06:22:13.232Z,969.58
2019-03-16T06:23:13.217Z,969.77
2019-03-16T06:24:13.207Z,969.77
2019-03-16T06:25:13.210Z,969.74
2019-03-16T06:26:13.198Z,969.81
2019-03-16T06:27:13.206Z,969.86
2019-03-16T06:28:13.169Z,969.79
2019-03-16T06:29:13.158Z,969.86
2019-03-16T06:30:13.148Z,969.85
2019-03-16T06:31:13.171Z,969.92
2019-03-16T06:32:13.122Z,969.91
2019-03-16T06:33:13.117Z,969.87
2019-03-16T06:34:13.122Z,969.98
2019-03-16T06:35:24.024Z,969.92
2019-03-16T06:36:14.125Z,969.93
2019-03-16T06:37:13.090Z,969.92
2019-03-16T06:38:13.054Z,969.93
2019-03-16T06:39:13.050Z,969.99
2019-03-16T06:40:13.036Z,969.97
2019-03-16T06:41:13.036Z,969.99
2019-03-16T06:42:13.066Z,970.02
2019-03-16T06:43:13.004Z,970.02
2019-03-16T06:44:12.994Z,970.05
2019-03-16T06:45:13.004Z,970.06
2019-03-16T06:46:13.035Z,970.07
2019-03-16T06:47:12.957Z,970.03
2019-03-16T06:48:12.951Z,970.01
2019-03-16T06:49:12.961Z,970.03
2019-03-16T06:50:12.922Z,970.03
2019-03-16T06:51:12.933Z,969.99
2019-03-16T06:52:12.903Z,970.02
2019-03-16T06:53:12.891Z,969.97
2019-03-16T06:54:13.175Z,970.01
2019-03-16T06:55:12.876Z,969.94
2019-03-16T06:56:13.266Z,969.99
2019-03-16T06:57:12.924Z,970.02
2019-03-16T06:58:12.887Z,970.06
2019-03-16T06:59:12.887Z,970.02
2019-03-16T07:00:12.942Z,970.02
2019-03-16T07:01:12.884Z,970.11
2019-03-16T07:02:12.798Z,970.03
2019-03-16T07:03:12.779Z,970.00
2019-03-16T07:04:12.774Z,970.08
2019-03-16T07:05:12.842Z,970.02
2019-03-16T07:06:12.761Z,970.10
2019-03-16T07:07:12.748Z,970.03
2019-03-16T07:08:12.730Z,970.10
2019-03-16T07:09:12.721Z,970.04
2019-03-16T07:10:12.718Z,970.09
2019-03-16T07:11:12.791Z,970.23
2019-03-16T07:12:12.687Z,970.10
2019-03-16T07:13:12.674Z,970.13
2019-03-16T07:14:12.706Z,970.16
2019-03-16T07:15:12.649Z,970.16
2019-03-16T07:16:12.660Z,970.19
2019-03-16T07:17:12.627Z,970.12
2019-03-16T07:18:12.788Z,970.17
2019-03-16T07:19:12.607Z,970.17
2019-03-16T07:20:12.605Z,970.20
2019-03-16T07:21:12.594Z,970.20
2019-03-16T07:22:12.580Z,970.14
2019-03-16T07:23:12.594Z,970.17
2019-03-16T07:24:12.553Z,970.13
2019-03-16T07:25:12.542Z,970.16
2019-03-16T07:26:15.050Z,970.19
2019-03-16T07:27:25.412Z,970.21
2019-03-16T07:28:13.506Z,970.12
2019-03-16T07:29:12.542Z,970.19
2019-03-16T07:30:12.485Z,970.22
2019-03-16T07:31:12.481Z,970.19
2019-03-16T07:32:12.463Z,970.19
2019-03-16T07:33:12.503Z,970.23
2019-03-16T07:34:12.605Z,970.23
2019-03-16T07:35:12.429Z,970.27
2019-03-16T07:36:12.447Z,970.20
2019-03-16T07:37:12.440Z,970.19
2019-03-16T07:38:12.427Z,970.15
2019-03-16T07:39:12.604Z,970.21
2019-03-16T07:40:12.492Z,970.25
2019-03-16T07:41:12.385Z,970.19
2019-03-16T07:42:12.387Z,970.22
2019-03-16T07:43:12.373Z,970.23
2019-03-16T07:44:12.370Z,970.25
2019-03-16T07:45:12.320Z,970.22
2019-03-16T07:46:12.367Z,970.24
2019-03-16T07:47:12.299Z,970.24
2019-03-16T07:48:12.298Z,970.26
2019-03-16T07:49:12.283Z,970.27
2019-03-16T07:50:12.273Z,970.33
2019-03-16T07:51:12.320Z,970.25
2019-03-16T07:52:12.248Z,970.26
2019-03-16T07:53:12.242Z,970.22
2019-03-16T07:54:12.235Z,970.24
2019-03-16T07:55:12.263Z,970.31
2019-03-16T07:56:12.288Z,970.30
2019-03-16T07:57:12.314Z,970.31
2019-03-16T07:58:12.202Z,970.33
2019-03-16T07:59:12.181Z,970.29
2019-03-16T08:00:12.161Z,970.27
2019-03-16T08:01:12.181Z,970.30
2019-03-16T08:02:12.801Z,970.33
2019-03-16T08:03:12.125Z,970.35
2019-03-16T08:04:12.118Z,970.30
2019-03-16T08:05:18.561Z,970.31
2019-03-16T08:06:13.096Z,970.25
2019-03-16T08:07:12.110Z,970.26
2019-03-16T08:08:12.069Z,970.32
2019-03-16T08:09:12.192Z,970.29
2019-03-16T08:10:12.086Z,970.29
2019-03-16T08:11:12.038Z,970.27
2019-03-16T08:12:12.029Z,970.28
2019-03-16T08:13:12.117Z,970.24
2019-03-16T08:14:12.014Z,970.30
2019-03-16T08:15:11.994Z,970.29
2019-03-16T08:16:11.985Z,970.33
2019-03-16T08:17:11.974Z,970.31
2019-03-16T08:18:11.969Z,970.27
2019-03-16T08:19:11.949Z,970.27
2019-03-16T08:20:11.946Z,970.28
2019-03-16T08:21:11.953Z,970.39
2019-03-16T08:22:11.925Z,970.29
2019-03-16T08:23:11.936Z,970.32
2019-03-16T08:24:11.895Z,970.29
2019-03-16T08:25:11.884Z,970.32
2019-03-16T08:26:11.871Z,970.38
2019-03-16T08:27:11.867Z,970.35
2019-03-16T08:28:11.857Z,970.36
2019-03-16T08:29:11.848Z,970.38
2019-03-16T08:30:11.834Z,970.40
2019-03-16T08:31:11.817Z,970.40
2019-03-16T08:32:11.837Z,970.44
2019-03-16T08:33:11.800Z,970.38
2019-03-16T08:34:11.800Z,970.38
2019-03-16T08:35:11.786Z,970.55
2019-03-16T08:36:11.763Z,970.45
2019-03-16T08:37:11.807Z,970.44
2019-03-16T08:38:11.756Z,970.43
2019-03-16T08:39:11.782Z,970.53
2019-03-16T08:40:11.737Z,970.44
2019-03-16T08:41:11.708Z,970.53
2019-03-16T08:42:12.433Z,970.50
2019-03-16T08:43:11.707Z,970.50
2019-03-16T08:44:11.748Z,970.44
2019-03-16T08:45:11.689Z,970.47
2019-03-16T08:46:12.310Z,970.50
2019-03-16T08:47:11.700Z,970.59
2019-03-16T08:48:22.203Z,970.52
2019-03-16T08:49:12.942Z,970.52
2019-03-16T08:50:11.713Z,970.46
2019-03-16T08:51:11.675Z,970.52
2019-03-16T08:52:11.665Z,970.53
2019-03-16T08:53:11.573Z,970.56
2019-03-16T08:54:11.563Z,970.48
2019-03-16T08:55:11.557Z,970.53
2019-03-16T08:56:11.612Z,970.51
2019-03-16T08:57:11.562Z,970.52
2019-03-16T08:58:11.558Z,970.48
2019-03-16T08:59:11.509Z,970.57
2019-03-16T09:00:11.497Z,970.65
2019-03-16T09:01:11.497Z,970.55
2019-03-16T09:02:11.516Z,970.54
2019-03-16T09:03:11.465Z,970.64
2019-03-16T09:04:11.468Z,970.54
2019-03-16T09:05:11.447Z,970.65
2019-03-16T09:06:11.432Z,970.62
2019-03-16T09:07:11.466Z,970.68
2019-03-16T09:08:11.419Z,970.69
2019-03-16T09:09:11.428Z,970.60
2019-03-16T09:10:11.392Z,970.70
2019-03-16T09:11:11.385Z,970.68
2019-03-16T09:12:11.384Z,970.73
2019-03-16T09:13:11.386Z,970.71
2019-03-16T09:14:11.351Z,970.74
2019-03-16T09:15:11.334Z,970.76
2019-03-16T09:16:11.330Z,970.75
2019-03-16T09:17:11.325Z,970.81
2019-03-16T09:18:11.314Z,970.78
2019-03-16T09:19:11.292Z,970.78
2019-03-16T09:20:11.346Z,970.80
2019-03-16T09:21:11.319Z,970.83
2019-03-16T09:22:11.271Z,970.81
2019-03-16T09:23:11.247Z,970.89
2019-03-16T09:24:11.239Z,970.92
2019-03-16T09:25:11.228Z,970.92
2019-03-16T09:26:11.241Z,970.85
2019-03-16T09:27:11.229Z,970.86
2019-03-16T09:28:18.627Z,970.95
2019-03-16T09:29:15.255Z,970.93
2019-03-16T09:30:11.196Z,970.86
2019-03-16T09:31:11.176Z,970.89
2019-03-16T09:32:11.181Z,970.91
2019-03-16T09:33:11.269Z,970.91
2019-03-16T09:34:11.133Z,970.98
2019-03-16T09:35:11.131Z,970.96
2019-03-16T09:36:11.111Z,970.99
2019-03-16T09:37:11.111Z,970.88
2019-03-16T09:38:11.081Z,970.83
2019-03-16T09:39:11.084Z,970.93
2019-03-16T09:40:11.065Z,970.94
2019-03-16T09:41:11.050Z,970.99
2019-03-16T09:42:11.240Z,971.01
2019-03-16T09:43:11.037Z,971.02
2019-03-16T09:44:11.015Z,971.03
2019-03-16T09:45:11.012Z,970.99
2019-03-16T09:46:11.009Z,971.00
2019-03-16T09:47:11.009Z,971.01
2019-03-16T09:48:10.977Z,971.00
2019-03-16T09:49:10.980Z,970.96
2019-03-16T09:50:10.959Z,970.98
2019-03-16T09:51:10.950Z,970.98
2019-03-16T09:52:10.939Z,971.01
2019-03-16T09:53:10.930Z,970.90
2019-03-16T09:54:10.903Z,970.94
2019-03-16T09:55:10.892Z,970.89
2019-03-16T09:56:10.882Z,970.99
2019-03-16T09:57:10.886Z,970.95
2019-03-16T09:58:10.858Z,971.03
2019-03-16T09:59:10.855Z,970.93
2019-03-16T10:00:10.852Z,971.05
2019-03-16T10:01:10.830Z,971.01
2019-03-16T10:02:10.837Z,971.01
2019-03-16T10:03:10.816Z,970.95
2019-03-16T10:04:10.828Z,970.93
2019-03-16T10:05:10.780Z,970.96
2019-03-16T10:06:10.783Z,970.93
2019-03-16T10:07:10.776Z,970.90
2019-03-16T10:08:10.773Z,970.98
2019-03-16T10:09:10.765Z,971.04
2019-03-16T10:10:10.756Z,971.05
2019-03-16T10:11:10.823Z,971.03
2019-03-16T10:12:10.726Z,971.08
2019-03-16T10:13:10.711Z,971.06
2019-03-16T10:14:10.686Z,971.04
2019-03-16T10:15:10.676Z,970.98
2019-03-16T10:16:10.668Z,971.07
2019-03-16T10:17:10.677Z,971.07
2019-03-16T10:18:10.768Z,971.04
2019-03-16T10:19:10.626Z,971.08
2019-03-16T10:20:10.623Z,971.00
2019-03-16T10:21:10.620Z,970.94
2019-03-16T10:22:10.613Z,971.01
2019-03-16T10:23:10.584Z,971.01
2019-03-16T10:24:10.586Z,971.04
2019-03-16T10:25:10.579Z,971.05
2019-03-16T10:26:10.549Z,970.99
2019-03-16T10:27:10.564Z,971.01
2019-03-16T10:28:10.534Z,971.03
2019-03-16T10:29:10.526Z,970.96
2019-03-16T10:30:10.507Z,970.98
2019-03-16T10:31:10.500Z,970.93
2019-03-16T10:32:10.492Z,970.94
2019-03-16T10:33:11.268Z,970.96
2019-03-16T10:34:10.483Z,970.94
2019-03-16T10:35:10.552Z,971.01
2019-03-16T10:36:10.441Z,970.96
2019-03-16T10:37:10.476Z,970.94
2019-03-16T10:38:10.426Z,970.98
2019-03-16T10:39:10.410Z,970.96
2019-03-16T10:40:10.507Z,971.02
2019-03-16T10:41:10.411Z,970.98
2019-03-16T10:42:10.428Z,971.07
2019-03-16T10:43:10.389Z,970.99
2019-03-16T10:44:10.361Z,971.09
2019-03-16T10:45:10.362Z,970.99
2019-03-16T10:46:10.394Z,971.08
2019-03-16T10:47:10.800Z,971.04
2019-03-16T10:48:10.316Z,971.09
2019-03-16T10:49:10.309Z,971.02
2019-03-16T10:50:10.306Z,971.07
2019-03-16T10:51:10.300Z,971.00
2019-03-16T10:52:10.278Z,971.09
2019-03-16T10:53:10.259Z,971.11
2019-03-16T10:54:10.257Z,971.09
2019-03-16T10:55:10.235Z,971.12
2019-03-16T10:56:10.259Z,971.10
2019-03-16T10:57:10.271Z,971.07
2019-03-16T10:58:10.221Z,971.09
2019-03-16T10:59:10.204Z,971.10
2019-03-16T11:00:10.182Z,971.18
2019-03-16T11:01:10.177Z,971.18
2019-03-16T11:02:10.443Z,971.08
2019-03-16T11:03:10.157Z,971.15
2019-03-16T11:04:10.137Z,971.14
2019-03-16T11:05:10.131Z,971.13
2019-03-16T11:06:10.115Z,971.17
2019-03-16T11:07:10.111Z,971.20
2019-03-16T11:08:10.100Z,971.15
2019-03-16T11:09:10.168Z,971.14
2019-03-16T11:10:10.075Z,971.31
2019-03-16T11:11:10.061Z,971.33
2019-03-16T11:12:10.052Z,971.31
2019-03-16T11:13:10.046Z,971.37
2019-03-16T11:14:10.033Z,971.38
2019-03-16T11:15:10.033Z,971.27
2019-03-16T11:16:10.028Z,971.32
2019-03-16T11:17:09.998Z,971.37
2019-03-16T11:18:09.990Z,971.33
2019-03-16T11:19:09.978Z,971.33
2019-03-16T11:20:09.963Z,971.39
2019-03-16T11:21:09.962Z,971.39
2019-03-16T11:22:09.961Z,971.38
2019-03-16T11:23:09.950Z,971.36
2019-03-16T11:24:09.945Z,971.43
2019-03-16T11:25:09.910Z,971.40
2019-03-16T11:26:09.902Z,971.43
2019-03-16T11:27:09.891Z,971.42
2019-03-16T11:28:09.885Z,971.46
2019-03-16T11:29:09.877Z,971.39
2019-03-16T11:30:09.856Z,971.37
2019-03-16T11:31:09.937Z,971.43
2019-03-16T11:32:09.837Z,971.37
2019-03-16T11:33:09.828Z,971.37
2019-03-16T11:34:09.812Z,971.40
2019-03-16T11:35:09.804Z,971.26
2019-03-16T11:36:09.787Z,971.28
2019-03-16T11:37:09.783Z,971.29
2019-03-16T11:38:09.778Z,971.28
2019-03-16T11:39:09.788Z,971.26
2019-03-16T11:40:09.755Z,971.24
2019-03-16T11:41:09.749Z,971.23
2019-03-16T11:42:09.722Z,971.25
2019-03-16T11:43:09.725Z,971.28
2019-03-16T11:44:09.707Z,971.24
2019-03-16T11:45:09.698Z,971.23
2019-03-16T11:46:09.684Z,971.14
2019-03-16T11:47:09.673Z,971.11
2019-03-16T11:48:09.676Z,971.13
2019-03-16T11:49:09.654Z,971.10
2019-03-16T11:50:09.666Z,971.08
2019-03-16T11:51:09.629Z,970.99
2019-03-16T11:52:09.627Z,970.92
2019-03-16T11:53:09.712Z,970.97
2019-03-16T11:54:09.597Z,970.97
2019-03-16T11:55:09.594Z,970.95
2019-03-16T11:56:17.930Z,970.89
2019-03-16T11:57:10.561Z,970.83
2019-03-16T11:58:09.561Z,970.79
2019-03-16T11:59:21.204Z,970.76
2019-03-16T12:00:10.532Z,970.79
2019-03-16T12:01:09.523Z,970.74
2019-03-16T12:02:09.509Z,970.76
2019-03-16T12:03:09.503Z,970.70
2019-03-16T12:04:09.499Z,970.69
2019-03-16T12:05:09.503Z,970.84
2019-03-16T12:06:09.483Z,970.72
2019-03-16T12:07:09.480Z,970.65
2019-03-16T12:08:09.658Z,970.67
2019-03-16T12:09:09.455Z,970.59
2019-03-16T12:10:09.425Z,970.61
2019-03-16T12:11:09.409Z,970.61
2019-03-16T12:12:09.404Z,970.69
2019-03-16T12:13:17.353Z,970.58
2019-03-16T12:14:10.409Z,970.60
2019-03-16T12:15:09.478Z,970.57
2019-03-16T12:16:09.364Z,970.54
2019-03-16T12:17:09.340Z,970.53
2019-03-16T12:18:09.336Z,970.60
2019-03-16T12:19:09.322Z,970.50
2019-03-16T12:20:09.319Z,970.48
2019-03-16T12:21:09.319Z,970.50
2019-03-16T12:22:09.378Z,970.57
2019-03-16T12:23:09.487Z,970.53
2019-03-16T12:24:09.266Z,970.54
2019-03-16T12:25:09.264Z,970.54
2019-03-16T12:26:09.253Z,970.50
2019-03-16T12:27:09.238Z,970.53
2019-03-16T12:28:09.238Z,970.50